Keenesburg, Colorado
Current Conditions -  °F | °C
As of 4:53 PM on Wednesday 22 Oct 2014 (Local Time) from KDEN Reporting Station
Broken Clouds Broken Clouds  
Wind Chill: 65°   Ceiling: 8000
Heat Index: 65°   Visibility: 10mi
Dew Point: 36°   Wind: 8mph
Humidity: 34%   Direction: 330°NNW
Pressure: 30.08"   Gusts: NA
Location:  40.11°N, 104.52°W
Report Text: KDEN 222253Z 33007KT 10SM FEW060 BKN080 BKN200 18/02 A3008 RMK AO2 SLP138 VIRGA T01830022
Loading
Personal Weather Stations






























Interactive Weather Map
Tropical Storm Tracking
New forecast layout! Learn more

10-Day Weather Forecast

Advertisements
Track Severe Weather on mobile